Time;durP1;ratioP1;P1;durP2;ratioP2;P2;SDS_P1;SDS_P2;PMS_P1;PMS_P2;Temp;Humidity;BMP_temperature;BMP_pressure;BME280_temperature;BME280_humidity;BME280_pressure;Samples;Min_cycle;Max_cycle;Signal;HPM_P1;HPM_P2
2023/03/13 00:01:19;;;;;;;21.75;11.88;;;2.50;99.90;;;;;;5027698;28;20037;-50
2023/03/13 00:03:44;;;;;;;26.60;14.05;;;2.60;99.90;;;;;;5024175;28;20022;-51
2023/03/13 00:06:10;;;;;;;27.17;16.08;;;2.60;99.90;;;;;;5023029;28;20029;-50
2023/03/13 00:08:36;;;;;;;31.45;13.57;;;2.60;99.90;;;;;;5027695;28;20381;-51
2023/03/13 00:11:04;;;;;;;32.08;16.38;;;2.50;99.90;;;;;;5024360;28;20045;-50
2023/03/13 00:13:30;;;;;;;37.80;17.48;;;2.40;99.90;;;;;;5022060;28;20042;-51
2023/03/13 00:16:07;;;;;;;33.92;17.67;;;2.40;99.90;;;;;;5022723;28;20132;-52
2023/03/13 00:18:33;;;;;;;24.60;12.02;;;2.40;99.90;;;;;;5024860;28;20052;-48
2023/03/13 00:21:04;;;;;;;22.45;11.55;;;2.30;99.90;;;;;;5025089;28;20045;-52
2023/03/13 00:23:31;;;;;;;18.42;8.80;;;2.30;99.90;;;;;;5028901;28;20515;-51
2023/03/13 00:26:03;;;;;;;25.02;12.05;;;2.20;99.90;;;;;;5025170;28;20044;-51
2023/03/13 00:28:31;;;;;;;14.75;9.50;;;2.30;99.90;;;;;;5023167;28;20052;-51
2023/03/13 00:31:01;;;;;;;15.65;9.07;;;2.30;99.90;;;;;;5028979;28;20059;-51
2023/03/13 00:33:27;;;;;;;18.63;10.90;;;2.30;99.90;;;;;;5012332;28;20057;-52
2023/03/13 00:35:59;;;;;;;20.30;11.73;;;2.50;99.90;;;;;;5030113;28;20037;-51
2023/03/13 00:38:26;;;;;;;;;;;2.50;99.90;;;;;;5030926;28;20457;-50
2023/03/13 00:40:59;;;;;;;21.63;10.93;;;2.40;99.90;;;;;;5032053;28;19913;-49
2023/03/13 00:43:24;;;;;;;17.05;9.90;;;2.30;99.90;;;;;;5027970;28;20044;-51
2023/03/13 00:45:50;;;;;;;15.40;10.02;;;2.20;99.90;;;;;;4999004;28;20037;-51
2023/03/13 00:48:16;;;;;;;13.70;8.60;;;2.20;99.90;;;;;;4991198;28;20045;-49
2023/03/13 00:50:42;;;;;;;14.55;8.32;;;2.10;99.90;;;;;;4991833;28;20507;-50
2023/03/13 00:53:07;;;;;;;11.85;7.20;;;1.90;99.90;;;;;;4992961;28;20038;-49
2023/03/13 00:55:33;;;;;;;9.35;6.85;;;1.80;99.90;;;;;;4983069;28;20034;-49
2023/03/13 00:57:59;;;;;;;12.20;7.70;;;1.80;99.90;;;;;;4983914;28;20038;-50
2023/03/13 01:00:25;;;;;;;10.55;6.88;;;1.90;99.90;;;;;;4997235;28;20074;-49
2023/03/13 01:02:50;;;;;;;9.80;6.90;;;2.00;99.90;;;;;;4998792;28;20045;-50
2023/03/13 01:05:16;;;;;;;11.85;7.93;;;2.10;99.90;;;;;;5007136;28;20022;-49
2023/03/13 01:07:42;;;;;;;11.63;8.48;;;1.80;99.90;;;;;;4993929;28;20070;-50
2023/03/13 01:10:08;;;;;;;12.07;8.73;;;1.70;99.90;;;;;;4989057;28;20592;-51
2023/03/13 01:12:34;;;;;;;11.52;7.10;;;1.90;99.90;;;;;;4999126;28;20391;-51
2023/03/13 01:14:59;;;;;;;12.52;7.43;;;2.00;99.90;;;;;;5005230;28;20084;-50
2023/03/13 01:17:25;;;;;;;13.55;7.25;;;1.80;99.90;;;;;;5004301;28;20033;-51
2023/03/13 01:19:55;;;;;;;13.45;9.30;;;1.80;99.90;;;;;;5018299;28;20033;-49
2023/03/13 01:22:20;;;;;;;12.88;8.27;;;1.90;99.90;;;;;;5031821;28;20103;-49
2023/03/13 01:24:48;;;;;;;13.93;8.05;;;2.00;99.90;;;;;;5031152;28;20112;-49
2023/03/13 01:27:14;;;;;;;13.80;9.05;;;2.10;99.90;;;;;;5018065;28;20125;-51
2023/03/13 01:29:40;;;;;;;17.33;9.18;;;2.20;99.90;;;;;;5046622;28;20326;-50
2023/03/13 01:32:06;;;;;;;16.58;8.98;;;2.20;99.90;;;;;;5024922;28;20393;-51
2023/03/13 01:34:31;;;;;;;12.45;8.32;;;2.00;99.90;;;;;;5022246;28;20041;-50
2023/03/13 01:36:58;;;;;;;16.25;7.63;;;;;;;;;;5027907;28;20048;-51
2023/03/13 01:39:24;;;;;;;15.35;9.20;;;;;;;;;;5033898;28;20034;-50
2023/03/13 01:41:50;;;;;;;17.95;10.70;;;;;;;;;;5048174;28;20030;-50
2023/03/13 01:44:21;;;;;;;19.77;10.85;;;;;;;;;;5021217;28;20037;-51
2023/03/13 01:46:47;;;;;;;14.10;9.55;;;;;;;;;;5029862;28;20043;-51
2023/03/13 01:49:33;;;;;;;15.82;9.85;;;1.90;99.90;;;;;;5025001;28;20072;-50
2023/03/13 01:52:05;;;;;;;23.38;11.82;;;;;;;;;;5031388;28;20515;-51
2023/03/13 01:54:38;;;;;;;36.90;18.73;;;2.70;99.90;;;;;;5048903;28;20044;-50
2023/03/13 01:57:18;;;;;;;32.38;17.77;;;3.00;99.90;;;;;;5030809;28;20029;-50
2023/03/13 01:59:48;;;;;;;31.02;18.48;;;3.30;99.90;;;;;;5026155;28;20036;-50
2023/03/13 02:02:15;;;;;;;14.18;9.50;;;3.50;99.90;;;;;;5030884;28;20543;-50
2023/03/13 02:04:46;;;;;;;66.38;34.08;;;3.60;99.90;;;;;;5030220;28;20036;-50
2023/03/13 02:07:20;;;;;;;68.95;29.73;;;3.70;99.90;;;;;;5031774;28;20030;-50
2023/03/13 02:09:50;;;;;;;46.45;19.08;;;3.80;99.90;;;;;;5024915;28;20029;-51
2023/03/13 02:12:43;;;;;;;19.27;10.77;;;3.80;99.90;;;;;;5026709;28;20493;-51
2023/03/13 02:15:18;;;;;;;27.42;15.90;;;3.90;99.90;;;;;;5029203;28;20059;-49
2023/03/13 02:17:46;;;;;;;35.63;20.70;;;4.00;99.90;;;;;;5029615;28;20096;-49
2023/03/13 02:20:13;;;;;;;31.75;18.35;;;4.10;99.90;;;;;;5031017;28;20042;-50
2023/03/13 02:23:00;;;;;;;59.15;33.35;;;4.10;99.90;;;;;;5030650;28;20516;-49
2023/03/13 02:25:31;;;;;;;30.90;17.45;;;4.10;99.90;;;;;;5014136;28;20084;-50
2023/03/13 02:28:00;;;;;;;22.85;11.98;;;;;;;;;;4998283;28;20057;-50
2023/03/13 02:30:26;;;;;;;20.23;13.10;;;;;;;;;;5030873;28;20083;-49
2023/03/13 02:32:52;;;;;;;17.75;12.18;;;4.30;99.90;;;;;;5005279;28;20045;-50
2023/03/13 02:35:20;;;;;;;23.95;12.90;;;4.30;99.90;;;;;;5030846;28;20087;-50
2023/03/13 02:37:58;;;;;;;16.58;10.90;;;4.00;99.90;;;;;;4997555;28;20068;-50
2023/03/13 02:40:28;;;;;;;15.02;10.73;;;3.70;99.90;;;;;;5030565;28;20604;-49
2023/03/13 02:42:57;;;;;;;17.90;11.38;;;3.20;99.90;;;;;;5030290;28;20061;-51
2023/03/13 02:45:23;;;;;;;18.50;10.82;;;3.10;99.90;;;;;;4993660;28;20041;-51
2023/03/13 02:47:48;;;;;;;14.57;9.63;;;3.30;99.90;;;;;;4987050;28;20086;-50
2023/03/13 02:50:15;;;;;;;15.70;10.00;;;3.00;99.90;;;;;;4997372;28;20040;-51
2023/03/13 02:52:45;;;;;;;12.20;8.35;;;2.70;99.90;;;;;;5024890;28;20096;-51
2023/03/13 02:55:21;;;;;;;13.40;8.35;;;2.60;99.90;;;;;;5036770;28;20041;-50
2023/03/13 02:57:47;;;;;;;19.50;12.48;;;2.60;99.90;;;;;;5018884;28;20393;-49
2023/03/13 03:00:16;;;;;;;18.77;11.18;;;2.30;99.90;;;;;;5028246;28;20026;-49
2023/03/13 03:02:42;;;;;;;11.73;8.20;;;2.20;99.90;;;;;;5025787;28;20469;-50
2023/03/13 03:05:09;;;;;;;13.75;8.25;;;2.00;99.90;;;;;;5023816;28;20072;-49
2023/03/13 03:07:35;;;;;;;12.18;7.53;;;1.80;99.90;;;;;;5027116;28;20028;-50
2023/03/13 03:10:01;;;;;;;11.13;7.47;;;1.90;99.90;;;;;;5024599;28;20025;-51
2023/03/13 03:12:27;;;;;;;9.75;6.97;;;1.90;99.90;;;;;;5020060;28;20041;-50
2023/03/13 03:14:52;;;;;;;8.93;6.40;;;1.80;99.90;;;;;;5030310;28;20550;-51
2023/03/13 03:17:18;;;;;;;10.48;6.63;;;1.70;99.90;;;;;;5030807;28;20112;-49
2023/03/13 03:19:44;;;;;;;9.35;6.88;;;1.60;99.90;;;;;;5027012;28;20026;-50
2023/03/13 03:22:10;;;;;;;10.18;7.30;;;1.70;99.90;;;;;;5013140;28;20037;-50
2023/03/13 03:24:36;;;;;;;13.38;7.45;;;1.70;99.90;;;;;;5024032;28;20096;-51
2023/03/13 03:27:01;;;;;;;11.02;6.80;;;1.50;99.90;;;;;;5042323;28;20033;-51
2023/03/13 03:29:28;;;;;;;10.40;6.97;;;;;;;;;;5025912;28;20052;-51
2023/03/13 03:31:53;;;;;;;10.40;7.25;;;1.60;99.90;;;;;;5023713;28;20559;-51
2023/03/13 03:34:20;;;;;;;8.90;6.97;;;1.60;99.90;;;;;;5022745;28;20121;-49
2023/03/13 03:36:45;;;;;;;9.23;6.35;;;1.60;99.90;;;;;;5044796;28;20393;-49
2023/03/13 03:39:11;;;;;;;10.52;6.80;;;1.60;99.90;;;;;;5026420;28;20021;-51
2023/03/13 03:41:37;;;;;;;7.78;4.97;;;1.60;99.90;;;;;;5029189;28;20076;-51
2023/03/13 03:44:04;;;;;;;9.48;5.82;;;;;;;;;;5039196;28;20037;-50
2023/03/13 03:46:30;;;;;;;7.20;4.32;;;1.40;99.90;;;;;;5015686;28;20441;-49
2023/03/13 03:48:55;;;;;;;11.73;6.05;;;1.20;99.90;;;;;;5024840;28;20025;-50
2023/03/13 03:51:21;;;;;;;9.45;6.47;;;1.20;99.90;;;;;;5024158;28;20029;-50
2023/03/13 03:53:47;;;;;;;6.30;4.30;;;1.20;99.90;;;;;;5030480;28;20142;-50
2023/03/13 03:56:13;;;;;;;8.35;5.43;;;1.20;99.90;;;;;;5026967;28;20042;-51
2023/03/13 03:58:39;;;;;;;7.18;3.30;;;1.30;99.90;;;;;;5025678;28;20037;-50
2023/03/13 04:01:05;;;;;;;11.82;7.10;;;1.40;99.90;;;;;;5006360;28;20041;-50
2023/03/13 04:03:31;;;;;;;17.45;8.07;;;1.40;99.90;;;;;;5039040;28;20096;-50
2023/03/13 04:05:56;;;;;;;15.52;8.27;;;1.60;99.90;;;;;;5022563;28;20030;-51
2023/03/13 04:08:22;;;;;;;12.85;7.68;;;1.60;99.90;;;;;;5025774;28;20030;-50
2023/03/13 04:10:48;;;;;;;10.63;5.90;;;1.60;99.90;;;;;;5030228;28;20041;-48
2023/03/13 04:13:14;;;;;;;9.88;5.10;;;1.60;99.90;;;;;;5030377;28;20029;-50
2023/03/13 04:15:41;;;;;;;10.73;4.85;;;1.70;99.90;;;;;;5033301;28;20033;-50
2023/03/13 04:18:07;;;;;;;7.45;5.47;;;1.70;99.90;;;;;;5015920;28;20503;-49
2023/03/13 04:20:33;;;;;;;8.93;5.28;;;1.70;99.90;;;;;;5033197;28;20076;-49
2023/03/13 04:22:59;;;;;;;8.70;5.47;;;1.60;99.90;;;;;;5007815;28;20038;-50
2023/03/13 04:25:24;;;;;;;8.60;5.13;;;1.70;99.90;;;;;;5023107;28;20022;-49
2023/03/13 04:27:50;;;;;;;11.18;6.03;;;1.80;99.90;;;;;;5033330;28;20025;-51
2023/03/13 04:30:16;;;;;;;9.68;6.18;;;1.60;99.90;;;;;;5030184;28;20531;-50
2023/03/13 04:32:42;;;;;;;8.75;5.53;;;1.60;99.90;;;;;;5028057;28;20087;-51
2023/03/13 04:35:08;;;;;;;12.40;7.18;;;1.40;99.90;;;;;;5029345;28;20546;-50
2023/03/13 04:37:34;;;;;;;18.17;10.60;;;1.50;99.90;;;;;;5030410;28;20034;-50
2023/03/13 04:40:00;;;;;;;21.23;13.40;;;1.40;99.90;;;;;;5029862;28;20111;-51
2023/03/13 04:42:26;;;;;;;20.48;12.77;;;1.40;99.90;;;;;;5022227;28;20036;-50
2023/03/13 04:44:52;;;;;;;15.23;9.88;;;1.50;99.90;;;;;;5028699;28;20033;-50
2023/03/13 04:47:18;;;;;;;10.93;7.72;;;;;;;;;;5047124;28;20053;-51
2023/03/13 04:49:44;;;;;;;10.52;6.22;;;1.80;99.90;;;;;;5027618;28;20049;-49
2023/03/13 04:52:10;;;;;;;8.30;6.18;;;2.00;99.90;;;;;;5032666;28;20135;-51
2023/03/13 04:54:35;;;;;;;9.98;5.65;;;2.00;99.90;;;;;;5023021;28;20037;-49
2023/03/13 04:57:01;;;;;;;8.20;5.93;;;1.90;99.90;;;;;;5026426;28;20029;-51
2023/03/13 04:59:27;;;;;;;8.25;5.65;;;2.10;99.90;;;;;;5028312;28;20030;-50
2023/03/13 05:01:53;;;;;;;9.68;5.97;;;2.00;99.90;;;;;;5048347;28;20038;-48
2023/03/13 05:04:18;;;;;;;10.73;6.60;;;2.00;99.90;;;;;;5029617;28;20033;-49
2023/03/13 05:06:44;;;;;;;9.65;6.70;;;1.90;99.90;;;;;;5032914;28;20041;-50
2023/03/13 05:09:10;;;;;;;10.73;6.95;;;1.80;99.90;;;;;;5030514;28;20041;-49
2023/03/13 05:11:35;;;;;;;10.68;7.05;;;2.00;99.90;;;;;;5029932;28;20025;-49
2023/03/13 05:14:03;;;;;;;7.95;6.15;;;2.20;99.90;;;;;;5024092;28;20042;-50
2023/03/13 05:16:29;;;;;;;8.15;5.80;;;2.20;99.90;;;;;;5026785;28;20046;-49
2023/03/13 05:18:54;;;;;;;9.05;5.30;;;2.10;99.90;;;;;;5027092;28;20029;-49
2023/03/13 05:21:20;;;;;;;8.07;5.25;;;1.90;99.90;;;;;;5042484;28;20091;-49
2023/03/13 05:23:46;;;;;;;8.85;6.93;;;1.90;99.90;;;;;;5027761;28;20037;-50
2023/03/13 05:26:12;;;;;;;12.30;6.43;;;;;;;;;;5028608;28;20025;-50
2023/03/13 05:28:38;;;;;;;11.05;7.20;;;;;;;;;;5030722;28;20079;-50
2023/03/13 05:31:04;;;;;;;9.82;6.22;;;2.40;99.90;;;;;;5048847;28;20037;-50
2023/03/13 05:33:29;;;;;;;9.95;6.85;;;2.60;99.90;;;;;;5031188;28;20172;-50
2023/03/13 05:35:55;;;;;;;8.18;5.93;;;2.50;99.90;;;;;;5024772;28;20037;-51
2023/03/13 05:38:21;;;;;;;7.75;5.45;;;2.50;99.90;;;;;;5023714;28;20030;-50
2023/03/13 05:40:47;;;;;;;9.27;6.10;;;2.60;99.90;;;;;;5029554;28;20029;-50
2023/03/13 05:43:12;;;;;;;8.63;6.65;;;2.70;99.90;;;;;;5023949;28;20109;-51
2023/03/13 05:45:38;;;;;;;8.93;6.10;;;2.60;99.90;;;;;;5023280;28;20029;-51
2023/03/13 05:48:04;;;;;;;9.60;6.85;;;2.60;99.90;;;;;;5028050;28;20414;-49
2023/03/13 05:50:30;;;;;;;9.63;6.68;;;2.60;99.90;;;;;;5027435;28;20080;-49
2023/03/13 05:52:55;;;;;;;8.40;5.72;;;2.50;99.90;;;;;;5030215;28;20045;-50
2023/03/13 05:55:21;;;;;;;9.40;5.85;;;2.50;99.90;;;;;;5024652;28;20018;-50
2023/03/13 05:57:48;;;;;;;10.25;6.60;;;2.80;99.90;;;;;;5028219;28;20026;-51
2023/03/13 06:00:15;;;;;;;14.95;8.20;;;2.80;99.90;;;;;;5028427;28;20021;-50
2023/03/13 06:02:41;;;;;;;16.10;8.95;;;2.80;99.90;;;;;;5045490;28;20373;-50
2023/03/13 06:05:07;;;;;;;16.95;9.38;;;2.90;99.90;;;;;;5030102;28;20372;-50
2023/03/13 06:07:33;;;;;;;14.82;9.13;;;3.20;99.90;;;;;;5029340;28;20027;-49
2023/03/13 06:09:58;;;;;;;15.10;9.32;;;3.40;99.90;;;;;;5026019;28;20033;-50
2023/03/13 06:12:24;;;;;;;13.32;9.45;;;3.60;99.90;;;;;;5029274;28;20053;-50
2023/03/13 06:14:50;;;;;;;18.48;12.00;;;3.70;99.90;;;;;;5025767;28;20493;-51
2023/03/13 06:17:16;;;;;;;15.50;9.27;;;3.80;99.90;;;;;;5028037;28;20474;-50
2023/03/13 06:19:42;;;;;;;14.20;8.55;;;4.00;99.90;;;;;;5022421;28;20026;-49
2023/03/13 06:22:08;;;;;;;22.75;14.27;;;;;;;;;;5032846;28;20056;-51
2023/03/13 06:24:34;;;;;;;19.20;13.65;;;4.60;99.90;;;;;;5042637;28;20049;-50
2023/03/13 06:27:00;;;;;;;13.40;10.90;;;4.80;99.90;;;;;;5025794;28;20034;-50
2023/03/13 06:29:25;;;;;;;12.10;8.23;;;5.00;99.90;;;;;;5023005;28;20038;-51
2023/03/13 06:31:51;;;;;;;15.52;8.90;;;5.10;99.90;;;;;;5024951;28;20041;-51
2023/03/13 06:34:17;;;;;;;20.40;13.05;;;5.10;99.90;;;;;;5022882;28;20405;-49
2023/03/13 06:36:43;;;;;;;16.35;12.10;;;5.30;99.90;;;;;;5020470;28;20087;-50
2023/03/13 06:39:10;;;;;;;11.90;9.13;;;5.20;99.90;;;;;;5021199;28;20040;-51
2023/03/13 06:41:36;;;;;;;11.93;8.15;;;5.20;99.90;;;;;;5028754;28;20048;-50
2023/03/13 06:44:02;;;;;;;10.52;7.38;;;5.10;99.90;;;;;;5026166;28;20025;-50
2023/03/13 06:46:28;;;;;;;10.90;6.93;;;5.30;99.90;;;;;;5032070;28;20033;-51
2023/03/13 06:48:55;;;;;;;11.02;7.45;;;;;;;;;;5021506;28;20044;-55
2023/03/13 06:51:21;;;;;;;10.43;6.95;;;;;;;;;;5031539;28;20071;-50
2023/03/13 06:53:48;;;;;;;10.30;6.78;;;6.60;99.90;;;;;;5025058;28;20109;-53
2023/03/13 06:56:14;;;;;;;11.90;7.22;;;;;;;;;;5024006;28;20018;-51
2023/03/13 06:58:40;;;;;;;10.23;6.20;;;7.50;99.90;;;;;;5030668;28;20064;-53
2023/03/13 07:01:11;;;;;;;8.50;5.43;;;7.50;99.90;;;;;;5023472;28;20065;-54
2023/03/13 07:03:37;;;;;;;4.57;3.95;;;7.40;99.90;;;;;;5025390;28;20034;-51
2023/03/13 07:06:04;;;;;;;8.98;6.45;;;7.20;99.90;;;;;;5021874;28;20034;-52
2023/03/13 07:08:31;;;;;;;8.98;5.85;;;;;;;;;;5031851;28;20034;-50
2023/03/13 07:11:04;;;;;;;8.45;5.93;;;;;;;;;;5026477;28;20079;-52
2023/03/13 07:13:30;;;;;;;7.72;5.80;;;;;;;;;;5030981;28;20042;-53
2023/03/13 07:16:00;;;;;;;9.00;5.57;;;;;;;;;;5024289;28;20362;-50
2023/03/13 07:18:26;;;;;;;9.35;6.53;;;;;;;;;;5031479;28;20034;-52
2023/03/13 07:20:56;;;;;;;10.45;6.40;;;10.60;99.90;;;;;;5026297;28;20057;-53
2023/03/13 07:23:23;;;;;;;8.43;6.28;;;;;;;;;;5043694;28;20065;-52
2023/03/13 07:25:56;;;;;;;10.68;6.60;;;10.60;99.80;;;;;;5028465;28;20049;-52
2023/03/13 07:28:23;;;;;;;10.45;6.47;;;10.50;99.80;;;;;;5029329;28;20384;-53
2023/03/13 07:30:49;;;;;;;10.25;7.18;;;10.50;99.90;;;;;;5031095;28;20453;-51
2023/03/13 07:33:15;;;;;;;10.63;7.53;;;10.20;99.40;;;;;;5012430;28;20053;-50
2023/03/13 07:35:50;;;;;;;10.30;6.68;;;10.50;99.90;;;;;;5021706;28;20034;-53
2023/03/13 07:38:16;;;;;;;14.10;7.63;;;10.70;99.90;;;;;;5028206;28;20030;-52
2023/03/13 07:40:52;;;;;;;13.50;7.45;;;;;;;;;;5028509;28;20486;-52
2023/03/13 07:43:18;;;;;;;16.88;9.80;;;;;;;;;;5021012;28;20036;-52
2023/03/13 07:46:04;;;;;;;17.67;10.75;;;;;;;;;;5029149;28;20406;-52
2023/03/13 07:48:32;;;;;;;16.92;9.23;;;;;;;;;;5028418;28;20084;-50
2023/03/13 07:50:59;;;;;;;15.73;9.23;;;10.70;99.90;;;;;;5028800;28;20041;-52
2023/03/13 07:53:26;;;;;;;17.05;10.40;;;11.30;99.90;;;;;;5028259;28;20029;-52
2023/03/13 07:55:58;;;;;;;14.07;9.75;;;11.50;99.90;;;;;;5031876;28;20033;-52
2023/03/13 07:58:26;;;;;;;10.57;6.78;;;;;;;;;;5030231;28;20029;-53
2023/03/13 08:00:52;;;;;;;9.88;6.22;;;12.30;97.70;;;;;;5033394;28;20124;-51
2023/03/13 08:03:18;;;;;;;9.90;5.10;;;12.10;97.10;;;;;;5030702;28;20117;-51
2023/03/13 08:05:44;;;;;;;6.55;4.53;;;12.10;96.80;;;;;;5032547;28;20026;-51
2023/03/13 08:08:09;;;;;;;7.93;4.85;;;12.60;96.70;;;;;;5022360;28;20036;-52
2023/03/13 08:10:35;;;;;;;8.15;4.95;;;;;;;;;;5049530;28;20072;-52
2023/03/13 08:13:02;;;;;;;17.55;8.93;;;;;;;;;;5031930;28;20041;-52
2023/03/13 08:15:28;;;;;;;8.88;3.25;;;13.60;99.90;;;;;;5021690;28;20064;-51
2023/03/13 08:17:56;;;;;;;5.93;4.38;;;13.20;98.30;;;;;;5023017;28;20025;-50
2023/03/13 08:20:22;;;;;;;12.25;8.15;;;13.30;98.40;;;;;;5031776;28;20179;-52
2023/03/13 08:22:49;;;;;;;7.85;6.15;;;;;;;;;;5033941;28;20649;-53
2023/03/13 08:25:15;;;;;;;7.35;5.22;;;14.90;96.20;;;;;;5027501;28;20033;-48
2023/03/13 08:27:41;;;;;;;12.73;5.60;;;;;;;;;;5049311;28;20072;-51
2023/03/13 08:30:09;;;;;;;6.97;5.40;;;;;;;;;;5032516;28;20044;-51
2023/03/13 08:32:36;;;;;;;5.90;4.63;;;;;;;;;;5010038;28;20052;-52
2023/03/13 08:35:03;;;;;;;5.25;3.75;;;16.70;90.50;;;;;;5025438;28;20076;-51
2023/03/13 08:37:29;;;;;;;7.97;4.93;;;16.10;88.90;;;;;;5031288;28;20405;-51
2023/03/13 08:39:55;;;;;;;5.78;3.88;;;16.00;87.80;;;;;;5019885;28;20093;-51
2023/03/13 08:42:22;;;;;;;11.27;7.13;;;16.10;85.50;;;;;;5027352;28;20037;-51
2023/03/13 08:44:48;;;;;;;10.20;6.53;;;;;;;;;;5026240;28;20484;-52
2023/03/13 08:47:14;;;;;;;5.90;4.22;;;17.10;99.90;;;;;;5021481;28;20030;-52
2023/03/13 08:49:40;;;;;;;5.72;4.60;;;;;;;;;;5028789;28;20123;-52
2023/03/13 08:52:06;;;;;;;9.55;4.22;;;19.00;99.90;;;;;;5026671;28;20041;-52
2023/03/13 08:54:33;;;;;;;4.90;2.88;;;19.60;82.20;;;;;;5067077;28;20079;-51
2023/03/13 08:56:59;;;;;;;7.20;3.42;;;17.90;78.90;;;;;;5043108;28;20041;-51
2023/03/13 08:59:25;;;;;;;6.03;4.10;;;20.10;82.50;;;;;;5047073;28;20107;-52
2023/03/13 09:01:51;;;;;;;6.72;3.60;;;;;;;;;;5034240;28;20141;-52
2023/03/13 09:04:17;;;;;;;5.63;4.28;;;20.10;74.00;;;;;;5045269;28;20048;-52
2023/03/13 09:06:43;;;;;;;6.78;5.35;;;19.30;73.70;;;;;;5044964;28;20083;-51
2023/03/13 09:09:11;;;;;;;4.90;3.55;;;19.20;74.50;;;;;;5045971;28;20432;-51
2023/03/13 09:11:38;;;;;;;4.53;3.28;;;20.30;77.20;;;;;;5046444;28;20447;-51
2023/03/13 09:14:04;;;;;;;5.18;3.17;;;21.30;77.50;;;;;;5045238;28;20037;-52
2023/03/13 09:16:31;;;;;;;6.15;3.35;;;21.00;74.00;;;;;;5044747;28;20517;-52
2023/03/13 09:18:58;;;;;;;4.43;3.38;;;20.70;73.80;;;;;;5044080;28;20038;-52
2023/03/13 09:21:27;;;;;;;4.30;2.78;;;20.80;74.20;;;;;;5051471;28;20102;-52
2023/03/13 09:23:53;;;;;;;4.65;3.05;;;;;;;;;;5043873;28;20037;-52
2023/03/13 09:26:20;;;;;;;5.05;3.42;;;;;;;;;;5031749;28;20056;-52
2023/03/13 09:28:46;;;;;;;7.85;3.58;;;;;;;;;;5022766;28;20057;-51
2023/03/13 09:31:23;;;;;;;5.97;3.60;;;21.70;73.00;;;;;;5030265;28;20041;-52
2023/03/13 09:33:49;;;;;;;5.85;3.65;;;21.90;73.50;;;;;;5030214;28;20045;-51
2023/03/13 09:36:16;;;;;;;7.47;3.80;;;21.50;73.90;;;;;;5022373;28;20033;-50
2023/03/13 09:38:42;;;;;;;9.30;7.10;;;20.90;71.30;;;;;;5027678;28;20041;-52
2023/03/13 09:41:17;;;;;;;7.05;4.75;;;21.60;72.80;;;;;;5027249;28;20473;-53
2023/03/13 09:43:51;;;;;;;67.20;60.22;;;;;;;;;;5029905;28;20036;-51
2023/03/13 09:46:32;;;;;;;5.88;3.70;;;21.20;82.50;;;;;;5024373;28;20025;-51
2023/03/13 09:49:01;;;;;;;4.47;3.38;;;20.10;95.30;;;;;;5031634;28;20049;-51
2023/03/13 09:51:35;;;;;;;4.40;3.10;;;;;;;;;;5023618;28;20117;-51
2023/03/13 09:54:13;;;;;;;5.03;3.10;;;21.20;71.80;;;;;;5027872;28;20524;-51
2023/03/13 09:56:59;;;;;;;5.47;3.30;;;;;;;;;;5027193;28;20034;-51
2023/03/13 09:59:32;;;;;;;4.15;2.80;;;21.80;69.40;;;;;;5009934;28;20519;-51
2023/03/13 10:02:01;;;;;;;4.78;3.28;;;21.80;69.30;;;;;;5026650;28;20017;-51
2023/03/13 10:04:32;;;;;;;8.73;6.05;;;;;;;;;;5025197;28;20088;-51
2023/03/13 10:06:58;;;;;;;6.80;3.85;;;22.60;83.40;;;;;;5027776;28;20100;-51
2023/03/13 10:09:32;;;;;;;5.00;4.15;;;21.90;68.50;;;;;;5023853;28;20046;-53
2023/03/13 10:12:05;;;;;;;5.05;4.18;;;;;;;;;;5023799;28;20030;-51
2023/03/13 10:14:47;;;;;;;7.00;5.03;;;;;;;;;;5031750;28;20025;-51
2023/03/13 10:17:35;;;;;;;4.45;3.20;;;23.60;67.50;;;;;;5027762;28;20029;-51
2023/03/13 10:20:19;;;;;;;6.45;4.20;;;23.00;90.50;;;;;;5023024;28;20029;-52
2023/03/13 10:22:47;;;;;;;9.02;4.85;;;22.00;67.80;;;;;;5028788;28;20092;-51
2023/03/13 10:25:32;;;;;;;6.85;4.40;;;23.30;69.60;;;;;;5028936;28;20112;-51
2023/03/13 10:27:59;;;;;;;4.22;3.05;;;;;;;;;;5026457;28;20109;-51
2023/03/13 10:30:28;;;;;;;4.13;3.33;;;23.00;77.10;;;;;;5029027;28;20033;-51
2023/03/13 10:33:13;;;;;;;6.20;4.10;;;22.50;84.20;;;;;;5037978;28;20045;-51
2023/03/13 10:35:42;;;;;;;6.13;4.60;;;20.80;64.30;;;;;;5024632;28;20057;-52
2023/03/13 10:38:18;;;;;;;4.47;3.17;;;21.80;65.80;;;;;;5024658;28;20037;-53
2023/03/13 10:40:59;;;;;;;6.03;3.72;;;20.80;68.80;;;;;;5026279;28;20542;-52
2023/03/13 10:43:26;;;;;;;4.43;3.20;;;;;;;;;;5027310;28;20044;-51
2023/03/13 10:45:52;;;;;;;4.18;3.15;;;22.10;66.60;;;;;;5028655;28;20028;-52
2023/03/13 10:48:25;;;;;;;3.78;3.00;;;21.80;66.60;;;;;;5029070;28;20112;-51
2023/03/13 10:50:56;;;;;;;3.85;3.15;;;21.90;66.90;;;;;;5020992;28;20108;-52
2023/03/13 10:53:32;;;;;;;7.32;3.90;;;21.80;65.90;;;;;;5025992;28;20385;-51
2023/03/13 10:56:18;;;;;;;4.70;3.25;;;22.10;67.40;;;;;;5024173;28;20452;-52
2023/03/13 10:58:44;;;;;;;4.13;2.70;;;;;;;;;;5022697;28;20385;-52
2023/03/13 11:01:30;;;;;;;3.20;2.17;;;22.70;98.00;;;;;;5021274;28;20034;-52
2023/03/13 11:03:59;;;;;;;6.65;4.28;;;21.30;65.00;;;;;;5022028;28;20543;-51
2023/03/13 11:06:29;;;;;;;4.32;2.65;;;;;;;;;;5027235;28;20084;-51
2023/03/13 11:09:21;;;;;;;4.82;3.03;;;20.30;65.30;;;;;;5042537;28;20048;-52
2023/03/13 11:11:52;;;;;;;7.03;4.78;;;20.90;68.30;;;;;;5028247;28;20033;-52
2023/03/13 11:14:20;;;;;;;14.40;7.97;;;;;;;;;;5029010;28;20042;-50
2023/03/13 11:16:53;;;;;;;5.65;3.92;;;22.60;85.30;;;;;;5023860;28;20473;-52
2023/03/13 11:19:24;;;;;;;93.65;51.50;;;;;;;;;;5028293;28;20088;-51
2023/03/13 11:21:56;;;;;;;;;;;22.80;81.90;;;;;;5025719;28;20041;-52
2023/03/13 11:24:44;;;;;;;4.97;3.28;;;22.80;66.00;;;;;;5032032;28;19905;-50
2023/03/13 11:27:12;;;;;;;4.18;2.50;;;;;;;;;;5022470;28;20426;-51
2023/03/13 11:29:54;;;;;;;29.55;18.35;;;;;;;;;;5028743;28;20429;-51
2023/03/13 11:32:27;;;;;;;31.27;19.90;;;;;;;;;;5029109;28;20385;-51
2023/03/13 11:34:59;;;;;;;10.00;4.43;;;;;;;;;;5025160;28;20038;-51
2023/03/13 11:37:28;;;;;;;4.15;3.22;;;;;;;;;;5021285;28;20144;-51
2023/03/13 11:40:21;;;;;;;3.45;2.90;;;22.80;95.10;;;;;;5027359;28;20030;-50
2023/03/13 11:42:52;;;;;;;3.58;2.47;;;22.60;94.20;;;;;;5028845;28;20065;-51
2023/03/13 11:45:44;;;;;;;6.75;4.15;;;21.20;64.50;;;;;;5028048;28;20579;-52
2023/03/13 11:48:19;;;;;;;6.77;4.73;;;21.40;65.50;;;;;;5028913;28;20044;-52
2023/03/13 11:51:12;;;;;;;55.45;31.83;;;21.80;66.30;;;;;;5029508;28;20497;-52
2023/03/13 11:54:11;;;;;;;10.85;6.65;;;21.30;69.00;;;;;;5023290;28;20076;-52
2023/03/13 11:57:03;;;;;;;7.32;4.50;;;21.50;65.90;;;;;;5029381;28;20036;-52
2023/03/13 11:59:41;;;;;;;26.45;18.35;;;21.30;67.20;;;;;;4995272;28;20540;-52
2023/03/13 12:02:10;;;;;;;13.07;7.50;;;;;;;;;;5029115;28;20056;-51
2023/03/13 12:04:42;;;;;;;11.40;8.02;;;;;;;;;;5029219;28;20489;-51
2023/03/13 12:07:13;;;;;;;6.43;4.07;;;;;;;;;;5025593;28;20515;-51
2023/03/13 12:09:49;;;;;;;19.30;16.52;;;;;;;;;;5013544;28;20045;-50
2023/03/13 12:12:15;;;;;;;9.98;6.70;;;;;;;;;;5027805;28;20037;-50
2023/03/13 12:14:41;;;;;;;4.70;3.35;;;;;;;;;;5029229;28;20033;-51
2023/03/13 12:17:10;;;;;;;5.68;2.90;;;;;;;;;;5029089;28;20048;-52
2023/03/13 12:19:57;;;;;;;5.00;2.90;;;20.90;67.90;;;;;;5022787;28;20539;-52
2023/03/13 12:23:04;;;;;;;12.10;4.47;;;20.40;67.10;;;;;;5025068;28;20077;-51
2023/03/13 12:25:44;;;;;;;6.40;3.25;;;20.50;66.70;;;;;;5045887;28;20570;-52
2023/03/13 12:28:22;;;;;;;4.00;2.88;;;20.50;90.40;;;;;;5014780;28;20072;-51
2023/03/13 12:30:54;;;;;;;6.30;3.38;;;;;;;;;;5032350;28;20052;-51
2023/03/13 12:33:25;;;;;;;7.35;3.13;;;;;;;;;;5035417;28;20041;-52
2023/03/13 12:36:25;;;;;;;5.35;3.28;;;20.30;94.40;;;;;;4992188;28;20169;-51
2023/03/13 12:39:01;;;;;;;5.13;3.50;;;;;;;;;;4917174;29;20072;-51
2023/03/13 12:41:40;;;;;;;8.18;5.78;;;;;;;;;;4916328;29;20099;-51
2023/03/13 12:44:16;;;;;;;6.13;3.92;;;21.60;96.60;;;;;;4901851;29;20036;-52
2023/03/13 12:46:44;;;;;;;8.75;5.68;;;;;;;;;;4917765;29;20401;-51
2023/03/13 12:49:29;;;;;;;4.90;3.13;;;22.00;68.00;;;;;;4917580;29;20394;-50
2023/03/13 12:52:12;;;;;;;7.40;2.95;;;21.70;68.30;;;;;;4915504;29;20124;-51
2023/03/13 12:54:44;;;;;;;5.28;3.55;;;21.00;66.60;;;;;;4916173;29;20040;-51
2023/03/13 12:57:20;;;;;;;4.85;3.13;;;21.10;66.80;;;;;;4917299;29;20040;-51
2023/03/13 12:59:53;;;;;;;5.50;3.95;;;21.50;67.30;;;;;;4912482;29;20552;-50
2023/03/13 13:02:26;;;;;;;6.15;4.60;;;21.30;68.00;;;;;;4892989;29;20084;-51
2023/03/13 13:04:55;;;;;;;6.25;4.57;;;20.70;67.30;;;;;;4897590;29;20033;-53
2023/03/13 13:07:36;;;;;;;5.65;3.90;;;21.30;68.00;;;;;;4937730;28;20685;-51
2023/03/13 13:10:08;;;;;;;5.13;4.15;;;21.20;72.00;;;;;;4954461;28;20044;-52
2023/03/13 13:12:35;;;;;;;6.15;4.00;;;21.30;70.00;;;;;;4970142;28;20051;-51
2023/03/13 13:15:03;;;;;;;6.75;3.58;;;21.40;71.90;;;;;;4969403;28;20049;-51
2023/03/13 13:17:38;;;;;;;6.18;4.38;;;21.00;71.60;;;;;;5049472;28;20045;-50
2023/03/13 13:20:34;;;;;;;6.05;4.30;;;21.00;69.60;;;;;;5024826;28;20080;-50